KABE/ABE METAR and TAF weather

Enter ICAO airport designator
Station Type Date Time Source
KABE METAR 2021/09/16 08:51 UTC NOAA

KABE 160851Z 03005KT 10SM BKN085 OVC110 19/18 A3010 RMK AO2 SLP191 T01940178 53005


Station Type Date Time Source
KABE Decoded METAR 2021/09/16 08:51 UTC NOAA

LEHIGH VALLEY INTERNATIONAL AIRPORT, PA, United States (KABE) 40-39N 075-27W 114M
Sep 16, 2021 - 04:51 AM EDT / 2021.09.16 0851 UTC
Wind: from the NNE (030 degrees) at 6 MPH (5 KT):0
Visibility: 10 mile(s):0
Sky conditions: overcast
Temperature: 66.9 F (19.4 C)
Dew Point: 64.0 F (17.8 C)
Relative Humidity: 90%
Pressure (altimeter): 30.1 in. Hg (1019 hPa)
Pressure tendency: 0.01 inches (0.5 hPa) higher than three hours ago
ob: KABE 160851Z 03005KT 10SM BKN085 OVC110 19/18 A3010 RMK AO2 SLP191 T01940178 53005
cycle: 9

Station Type Date Time Source
KABE TAF 2021/09/16 06:22 UTC NOAA

TAF KABE 160520Z 1606/1706 VRB04KT 6SM -SHRA BR SCT015 OVC025
FM161000 VRB03KT 6SM BR SCT010 OVC015
FM161500 06005KT P6SM SCT015 OVC025
FM161800 08006KT P6SM VCSH SCT020 OVC035
FM170200 VRB03KT P6SM OVC015

Example: see airport list